Wimbledon, North Dakota
Current Conditions -  °F | °C
As of 7:56 PM on Sunday 25 Jan 2015 (Local Time) from KJMS Reporting Station
Overcast Overcast  
Wind Chill: -5°   Ceiling: 8000
Heat Index: -1°   Visibility: 10mi
Dew Point: -2°   Wind: 8mph
Humidity: 92%   Direction: 190°S
Pressure: 29.86"   Gusts: NA
Location:  47.17°N, 98.46°W
Report Text: KJMS 260156Z AUTO 19007KT 10SM OVC080 M01/M02 A2986 RMK AO2 SLP132 T10061017
Loading
Personal Weather Stations






























Interactive Weather Map New forecast layout! Learn more

10-Day Weather Forecast

Advertisements
Track Severe Weather on mobile